Wednesday, October 22, 2014
03:13 UTC
  |  Log In   |  Register Free
Airport Search:

Lenawee County Airport
(KADG)

Lenawee County Airport Diagram
No Airport Diagram Available

FAA data valid effective September 18, 2014 - November 13, 2014 (unless otherwise noted).

 
 
 
 
 
 
 
 
 
 
 
 
 
 

Current Aviation Weather for Lenawee County Airport (KADG)

The most recent METAR observation for KADG was updated at: 0309
METAR Summary (Translated METAR)
KADG
220253Z AUTO 04010KT 10SM BKN040 OVC055 07/02 A3023 RMK AO2 SLP242 T00670017 51016
KUSE
220155Z AUTO 03007G12KT 10SM OVC024 07/03 A3021 RMK AO2
(15.6 nm SW from KADG)
KDUH
220254Z AUTO 35008KT 10SM OVC022 07/02 A3022 RMK AO2
(20.4 nm SE from KADG)
TAF
No TAF information found within 50 nm of KADG
  Airport Weather Conditions for KADG

 Current Weather at ADG
44° F
Overcast
Northeast winds at 10.4 mph
ADG NOAA Radar

Pressure: 30.21 in
Humidity: 73%
Wind: Northeast at 10.4 MPH (9 KT)
Dew Point: 36.0°F
Visibility: 10.00 mi


Airport Weather Forecast for KADG

Translated METAR and TAF for KADG
Translated METAR for KADG (0308 UTC 22 October 2014)
found at http://aviationweather.gov/adds/metars/
 
METAR text: KADG 220253Z AUTO 04010KT 10SM BKN040 OVC055 07/02 A3023 RMK AO2 SLP242 T00670017 51016
Conditions at: KADG (ADRIAN , MI, US) observed 0253 UTC 22 October 2014
Temperature: 6.7°C (44°F)
Dewpoint: 1.7°C (35°F) [RH = 70%]
Pressure (altimeter): 30.23 inches Hg (1023.8 mb)
[Sea-level pressure: 1024.2 mb]
Winds: from the NE (40 degrees) at 12 MPH (10 knots; 5.2 m/s)
Visibility: 10 or more miles (16+ km)
Ceiling: 4000 feet AGL
Clouds: broken clouds at 4000 feet AGL
overcast cloud deck at 5500 feet AGL
Weather: automated observation with no human augmentation;
there may or may not be significant weather present at this time
Translated TAF for KADG

There is no translated TAF available for this airport

Find All Airport Services Find A Hotel Find A Rental Car Find A Golf Course Find A Restaurant $100 Hamburger



FBO's on the Field
FBO Company Facility Photos Services Transportation Aviation Fuel Prices: Prices include tax
Catering Weather Repair Courtesy Rental Type 100LL JetA JetA+ MOGAS 8087
 
Lenawee County Airport

This FBO has not yet been rated
FS:Avfuel
Last Updated: Oct-10
Login to update fuel prices
SS:
Contact Lenawee County AirportMore FBO Information
 
Add another FBO Facility Photos Catering Weather Repair Courtesy Rental Type 100LL JetA JetA+ MOGAS 8087
Services Transportation Aviation Fuel Prices: Prices include tax


model-print
model-print
model-print
model-print